Galchutt, North Dakota
Current Conditions -  °F | °C
As of 9:15 PM on Saturday 20 Dec 2014 (Local Time) from KBWP Reporting Station
Overcast Overcast  
Wind Chill: 20°   Ceiling: 700
Heat Index: 32°   Visibility: 5mi
Dew Point: 28°   Wind: 18mph
Humidity: 87%   Direction: 160°SSE
Pressure: 29.94"   Gusts: 25mph
Location:  46.3099°N, 96.7867°W
Report Text: KBWP 210315Z AUTO 16016G22KT 5SM OVC007 00/M02 A2994 RMK AO1
Loading
Personal Weather Stations






























Interactive Weather Map New forecast layout! Learn more

10-Day Weather Forecast

Advertisements
Track Severe Weather on mobile